sensor_id;sensor_type;location;lat;lon;timestamp;P1;durP1;ratioP1;P2;durP2;ratioP2
3447;SDS011;1738;49.500;17.736;2023-07-22T00:01:08;6.97;;;3.63;;
3447;SDS011;1738;49.500;17.736;2023-07-22T00:03:34;11.97;;;4.30;;
3447;SDS011;1738;49.500;17.736;2023-07-22T00:06:03;8.80;;;4.43;;
3447;SDS011;1738;49.500;17.736;2023-07-22T00:08:28;7.67;;;3.97;;
3447;SDS011;1738;49.500;17.736;2023-07-22T00:10:53;12.47;;;3.97;;
3447;SDS011;1738;49.500;17.736;2023-07-22T00:13:19;7.67;;;4.40;;
3447;SDS011;1738;49.500;17.736;2023-07-22T00:15:45;6.83;;;4.93;;
3447;SDS011;1738;49.500;17.736;2023-07-22T00:18:11;9.43;;;4.30;;
3447;SDS011;1738;49.500;17.736;2023-07-22T00:20:37;19.23;;;4.63;;
3447;SDS011;1738;49.500;17.736;2023-07-22T00:23:03;11.50;;;4.53;;
3447;SDS011;1738;49.500;17.736;2023-07-22T00:25:29;14.00;;;4.87;;
3447;SDS011;1738;49.500;17.736;2023-07-22T00:27:54;10.70;;;4.27;;
3447;SDS011;1738;49.500;17.736;2023-07-22T00:30:20;9.57;;;4.23;;
3447;SDS011;1738;49.500;17.736;2023-07-22T00:32:46;9.43;;;4.50;;
3447;SDS011;1738;49.500;17.736;2023-07-22T00:35:12;14.65;;;5.30;;
3447;SDS011;1738;49.500;17.736;2023-07-22T00:37:38;17.60;;;5.10;;
3447;SDS011;1738;49.500;17.736;2023-07-22T00:40:04;10.30;;;4.73;;
3447;SDS011;1738;49.500;17.736;2023-07-22T00:42:30;8.53;;;4.60;;
3447;SDS011;1738;49.500;17.736;2023-07-22T00:44:56;7.00;;;4.73;;
3447;SDS011;1738;49.500;17.736;2023-07-22T00:47:22;7.73;;;4.17;;
3447;SDS011;1738;49.500;17.736;2023-07-22T00:49:48;11.20;;;4.23;;
3447;SDS011;1738;49.500;17.736;2023-07-22T00:52:13;7.63;;;4.33;;
3447;SDS011;1738;49.500;17.736;2023-07-22T00:54:39;9.77;;;4.30;;
3447;SDS011;1738;49.500;17.736;2023-07-22T00:57:06;7.37;;;4.43;;
3447;SDS011;1738;49.500;17.736;2023-07-22T00:59:31;10.90;;;5.13;;
3447;SDS011;1738;49.500;17.736;2023-07-22T01:01:57;9.60;;;5.07;;
3447;SDS011;1738;49.500;17.736;2023-07-22T01:04:23;11.00;;;5.00;;
3447;SDS011;1738;49.500;17.736;2023-07-22T01:06:49;13.07;;;5.70;;
3447;SDS011;1738;49.500;17.736;2023-07-22T01:09:15;12.37;;;5.20;;
3447;SDS011;1738;49.500;17.736;2023-07-22T01:11:40;7.63;;;4.83;;
3447;SDS011;1738;49.500;17.736;2023-07-22T01:14:06;15.23;;;5.07;;
3447;SDS011;1738;49.500;17.736;2023-07-22T01:16:32;13.27;;;5.00;;
3447;SDS011;1738;49.500;17.736;2023-07-22T01:18:58;19.90;;;5.30;;
3447;SDS011;1738;49.500;17.736;2023-07-22T01:21:24;14.13;;;6.30;;
3447;SDS011;1738;49.500;17.736;2023-07-22T01:23:50;12.68;;;5.53;;
3447;SDS011;1738;49.500;17.736;2023-07-22T01:26:16;11.97;;;5.87;;
3447;SDS011;1738;49.500;17.736;2023-07-22T01:28:41;6.97;;;4.70;;
3447;SDS011;1738;49.500;17.736;2023-07-22T01:31:07;15.50;;;6.50;;
3447;SDS011;1738;49.500;17.736;2023-07-22T01:33:33;18.47;;;7.07;;
3447;SDS011;1738;49.500;17.736;2023-07-22T01:35:59;11.00;;;7.07;;
3447;SDS011;1738;49.500;17.736;2023-07-22T01:38:25;26.30;;;6.73;;
3447;SDS011;1738;49.500;17.736;2023-07-22T01:40:50;17.70;;;6.17;;
3447;SDS011;1738;49.500;17.736;2023-07-22T01:43:16;16.70;;;6.97;;
3447;SDS011;1738;49.500;17.736;2023-07-22T01:45:42;13.73;;;7.30;;
3447;SDS011;1738;49.500;17.736;2023-07-22T01:48:08;19.40;;;6.77;;
3447;SDS011;1738;49.500;17.736;2023-07-22T01:50:34;30.03;;;8.20;;
3447;SDS011;1738;49.500;17.736;2023-07-22T01:53:00;18.57;;;7.00;;
3447;SDS011;1738;49.500;17.736;2023-07-22T01:55:25;26.90;;;7.75;;
3447;SDS011;1738;49.500;17.736;2023-07-22T01:57:51;17.73;;;7.33;;
3447;SDS011;1738;49.500;17.736;2023-07-22T02:00:17;12.90;;;7.63;;
3447;SDS011;1738;49.500;17.736;2023-07-22T02:02:43;14.70;;;6.67;;
3447;SDS011;1738;49.500;17.736;2023-07-22T02:05:09;21.87;;;6.90;;
3447;SDS011;1738;49.500;17.736;2023-07-22T02:07:35;16.60;;;7.65;;
3447;SDS011;1738;49.500;17.736;2023-07-22T02:10:01;15.73;;;8.40;;
3447;SDS011;1738;49.500;17.736;2023-07-22T02:12:26;11.33;;;7.50;;
3447;SDS011;1738;49.500;17.736;2023-07-22T02:14:52;20.07;;;7.57;;
3447;SDS011;1738;49.500;17.736;2023-07-22T02:17:18;13.23;;;7.83;;
3447;SDS011;1738;49.500;17.736;2023-07-22T02:19:44;12.13;;;7.33;;
3447;SDS011;1738;49.500;17.736;2023-07-22T02:22:10;24.67;;;8.10;;
3447;SDS011;1738;49.500;17.736;2023-07-22T02:24:36;14.00;;;7.60;;
3447;SDS011;1738;49.500;17.736;2023-07-22T02:27:01;20.73;;;8.83;;
3447;SDS011;1738;49.500;17.736;2023-07-22T02:29:27;16.10;;;8.30;;
3447;SDS011;1738;49.500;17.736;2023-07-22T02:31:53;11.10;;;7.50;;
3447;SDS011;1738;49.500;17.736;2023-07-22T02:34:19;22.97;;;9.10;;
3447;SDS011;1738;49.500;17.736;2023-07-22T02:36:45;13.50;;;9.27;;
3447;SDS011;1738;49.500;17.736;2023-07-22T02:39:11;15.77;;;9.33;;
3447;SDS011;1738;49.500;17.736;2023-07-22T02:41:37;23.10;;;10.40;;
3447;SDS011;1738;49.500;17.736;2023-07-22T02:44:02;17.63;;;9.13;;
3447;SDS011;1738;49.500;17.736;2023-07-22T02:46:28;22.87;;;10.17;;
3447;SDS011;1738;49.500;17.736;2023-07-22T02:48:54;21.57;;;9.83;;
3447;SDS011;1738;49.500;17.736;2023-07-22T02:51:20;22.40;;;10.73;;
3447;SDS011;1738;49.500;17.736;2023-07-22T02:53:46;21.93;;;10.00;;
3447;SDS011;1738;49.500;17.736;2023-07-22T02:56:12;15.90;;;10.10;;
3447;SDS011;1738;49.500;17.736;2023-07-22T02:58:37;19.57;;;10.13;;
3447;SDS011;1738;49.500;17.736;2023-07-22T03:01:04;37.77;;;9.57;;
3447;SDS011;1738;49.500;17.736;2023-07-22T03:03:29;21.33;;;10.63;;
3447;SDS011;1738;49.500;17.736;2023-07-22T03:05:55;17.50;;;9.67;;
3447;SDS011;1738;49.500;17.736;2023-07-22T03:08:21;15.60;;;10.37;;
3447;SDS011;1738;49.500;17.736;2023-07-22T03:10:47;21.60;;;10.33;;
3447;SDS011;1738;49.500;17.736;2023-07-22T03:13:13;17.57;;;11.00;;
3447;SDS011;1738;49.500;17.736;2023-07-22T03:15:38;21.57;;;10.10;;
3447;SDS011;1738;49.500;17.736;2023-07-22T03:18:04;15.70;;;10.20;;
3447;SDS011;1738;49.500;17.736;2023-07-22T03:20:30;26.47;;;10.67;;
3447;SDS011;1738;49.500;17.736;2023-07-22T03:22:56;23.53;;;9.47;;
3447;SDS011;1738;49.500;17.736;2023-07-22T03:25:22;35.67;;;9.90;;
3447;SDS011;1738;49.500;17.736;2023-07-22T03:27:48;25.70;;;11.70;;
3447;SDS011;1738;49.500;17.736;2023-07-22T03:30:14;36.47;;;11.40;;
3447;SDS011;1738;49.500;17.736;2023-07-22T03:32:43;19.63;;;10.47;;
3447;SDS011;1738;49.500;17.736;2023-07-22T03:35:08;19.90;;;10.97;;
3447;SDS011;1738;49.500;17.736;2023-07-22T03:37:34;21.10;;;11.80;;
3447;SDS011;1738;49.500;17.736;2023-07-22T03:40:00;26.27;;;10.87;;
3447;SDS011;1738;49.500;17.736;2023-07-22T03:42:25;24.30;;;10.73;;
3447;SDS011;1738;49.500;17.736;2023-07-22T03:44:51;25.40;;;10.25;;
3447;SDS011;1738;49.500;17.736;2023-07-22T03:47:17;35.83;;;11.03;;
3447;SDS011;1738;49.500;17.736;2023-07-22T03:49:44;22.45;;;9.60;;
3447;SDS011;1738;49.500;17.736;2023-07-22T03:52:10;24.27;;;10.13;;
3447;SDS011;1738;49.500;17.736;2023-07-22T03:54:35;14.93;;;9.77;;
3447;SDS011;1738;49.500;17.736;2023-07-22T03:57:01;16.70;;;10.60;;
3447;SDS011;1738;49.500;17.736;2023-07-22T03:59:27;29.00;;;10.80;;
3447;SDS011;1738;49.500;17.736;2023-07-22T04:01:53;13.00;;;8.60;;
3447;SDS011;1738;49.500;17.736;2023-07-22T04:04:19;11.90;;;9.30;;
3447;SDS011;1738;49.500;17.736;2023-07-22T04:06:45;14.83;;;9.30;;
3447;SDS011;1738;49.500;17.736;2023-07-22T04:09:11;13.47;;;9.20;;
3447;SDS011;1738;49.500;17.736;2023-07-22T04:11:36;17.50;;;10.73;;
3447;SDS011;1738;49.500;17.736;2023-07-22T04:14:02;22.70;;;10.77;;
3447;SDS011;1738;49.500;17.736;2023-07-22T04:16:28;20.60;;;10.33;;
3447;SDS011;1738;49.500;17.736;2023-07-22T04:18:54;17.97;;;10.27;;
3447;SDS011;1738;49.500;17.736;2023-07-22T04:21:20;24.03;;;10.70;;
3447;SDS011;1738;49.500;17.736;2023-07-22T04:23:46;28.23;;;10.30;;
3447;SDS011;1738;49.500;17.736;2023-07-22T04:26:11;23.57;;;10.10;;
3447;SDS011;1738;49.500;17.736;2023-07-22T04:28:37;13.13;;;9.03;;
3447;SDS011;1738;49.500;17.736;2023-07-22T04:31:03;18.20;;;10.03;;
3447;SDS011;1738;49.500;17.736;2023-07-22T04:33:29;15.43;;;9.90;;
3447;SDS011;1738;49.500;17.736;2023-07-22T04:35:57;10.47;;;9.37;;
3447;SDS011;1738;49.500;17.736;2023-07-22T04:38:22;13.37;;;9.63;;
3447;SDS011;1738;49.500;17.736;2023-07-22T04:40:48;13.03;;;11.00;;
3447;SDS011;1738;49.500;17.736;2023-07-22T04:43:13;13.07;;;8.97;;
3447;SDS011;1738;49.500;17.736;2023-07-22T04:45:39;15.33;;;10.23;;
3447;SDS011;1738;49.500;17.736;2023-07-22T04:48:06;17.17;;;11.12;;
3447;SDS011;1738;49.500;17.736;2023-07-22T04:50:31;13.63;;;9.97;;
3447;SDS011;1738;49.500;17.736;2023-07-22T04:52:57;14.47;;;11.07;;
3447;SDS011;1738;49.500;17.736;2023-07-22T04:55:23;12.93;;;11.10;;
3447;SDS011;1738;49.500;17.736;2023-07-22T04:57:48;21.60;;;12.83;;
3447;SDS011;1738;49.500;17.736;2023-07-22T05:00:14;18.60;;;11.67;;
3447;SDS011;1738;49.500;17.736;2023-07-22T05:02:40;14.57;;;11.20;;
3447;SDS011;1738;49.500;17.736;2023-07-22T05:05:06;15.77;;;12.90;;
3447;SDS011;1738;49.500;17.736;2023-07-22T05:07:32;15.10;;;11.90;;
3447;SDS011;1738;49.500;17.736;2023-07-22T05:09:58;19.12;;;11.27;;
3447;SDS011;1738;49.500;17.736;2023-07-22T05:12:24;15.60;;;12.70;;
3447;SDS011;1738;49.500;17.736;2023-07-22T05:14:50;19.77;;;12.43;;
3447;SDS011;1738;49.500;17.736;2023-07-22T05:17:16;16.47;;;12.17;;
3447;SDS011;1738;49.500;17.736;2023-07-22T05:19:42;17.87;;;12.10;;
3447;SDS011;1738;49.500;17.736;2023-07-22T05:22:08;16.50;;;11.50;;
3447;SDS011;1738;49.500;17.736;2023-07-22T05:24:33;16.90;;;11.93;;
3447;SDS011;1738;49.500;17.736;2023-07-22T05:26:59;16.20;;;12.40;;
3447;SDS011;1738;49.500;17.736;2023-07-22T05:29:25;14.73;;;11.97;;
3447;SDS011;1738;49.500;17.736;2023-07-22T05:31:51;16.60;;;11.65;;
3447;SDS011;1738;49.500;17.736;2023-07-22T05:34:17;13.80;;;12.40;;
3447;SDS011;1738;49.500;17.736;2023-07-22T05:36:43;13.50;;;12.00;;
3447;SDS011;1738;49.500;17.736;2023-07-22T05:39:08;16.70;;;11.77;;
3447;SDS011;1738;49.500;17.736;2023-07-22T05:41:34;13.17;;;11.47;;
3447;SDS011;1738;49.500;17.736;2023-07-22T05:44:00;17.80;;;10.57;;
3447;SDS011;1738;49.500;17.736;2023-07-22T05:46:26;11.40;;;9.63;;
3447;SDS011;1738;49.500;17.736;2023-07-22T05:48:52;14.93;;;9.53;;
3447;SDS011;1738;49.500;17.736;2023-07-22T05:51:18;11.90;;;9.50;;
3447;SDS011;1738;49.500;17.736;2023-07-22T05:53:43;9.80;;;8.90;;
3447;SDS011;1738;49.500;17.736;2023-07-22T05:56:09;13.18;;;9.30;;
3447;SDS011;1738;49.500;17.736;2023-07-22T05:58:35;12.00;;;8.30;;
3447;SDS011;1738;49.500;17.736;2023-07-22T06:01:01;13.70;;;9.10;;
3447;SDS011;1738;49.500;17.736;2023-07-22T06:03:27;11.93;;;8.13;;
3447;SDS011;1738;49.500;17.736;2023-07-22T06:05:53;10.80;;;8.33;;
3447;SDS011;1738;49.500;17.736;2023-07-22T06:08:19;10.50;;;8.60;;
3447;SDS011;1738;49.500;17.736;2023-07-22T06:10:45;15.77;;;8.60;;
3447;SDS011;1738;49.500;17.736;2023-07-22T06:13:11;10.02;;;8.88;;
3447;SDS011;1738;49.500;17.736;2023-07-22T06:15:37;12.73;;;8.97;;
3447;SDS011;1738;49.500;17.736;2023-07-22T06:18:02;13.20;;;8.40;;
3447;SDS011;1738;49.500;17.736;2023-07-22T06:20:28;8.80;;;7.97;;
3447;SDS011;1738;49.500;17.736;2023-07-22T06:22:54;12.27;;;8.60;;
3447;SDS011;1738;49.500;17.736;2023-07-22T06:25:20;10.77;;;8.17;;
3447;SDS011;1738;49.500;17.736;2023-07-22T06:27:46;11.80;;;8.70;;
3447;SDS011;1738;49.500;17.736;2023-07-22T06:30:12;11.25;;;8.90;;
3447;SDS011;1738;49.500;17.736;2023-07-22T06:32:38;11.27;;;8.07;;
3447;SDS011;1738;49.500;17.736;2023-07-22T06:35:04;9.70;;;8.70;;
3447;SDS011;1738;49.500;17.736;2023-07-22T06:37:30;8.80;;;7.90;;
3447;SDS011;1738;49.500;17.736;2023-07-22T06:39:55;10.67;;;8.53;;
3447;SDS011;1738;49.500;17.736;2023-07-22T06:42:21;11.50;;;8.50;;
3447;SDS011;1738;49.500;17.736;2023-07-22T06:44:47;9.33;;;7.40;;
3447;SDS011;1738;49.500;17.736;2023-07-22T06:47:13;8.70;;;7.80;;
3447;SDS011;1738;49.500;17.736;2023-07-22T06:49:39;8.80;;;6.90;;
3447;SDS011;1738;49.500;17.736;2023-07-22T06:52:05;10.10;;;7.30;;
3447;SDS011;1738;49.500;17.736;2023-07-22T06:54:31;9.67;;;7.30;;
3447;SDS011;1738;49.500;17.736;2023-07-22T06:56:57;10.37;;;6.90;;
3447;SDS011;1738;49.500;17.736;2023-07-22T06:59:23;11.90;;;6.77;;
3447;SDS011;1738;49.500;17.736;2023-07-22T07:01:48;11.57;;;7.00;;
3447;SDS011;1738;49.500;17.736;2023-07-22T07:04:14;7.77;;;6.93;;
3447;SDS011;1738;49.500;17.736;2023-07-22T07:06:40;10.53;;;7.17;;
3447;SDS011;1738;49.500;17.736;2023-07-22T07:09:06;9.40;;;7.50;;
3447;SDS011;1738;49.500;17.736;2023-07-22T07:11:32;6.23;;;5.63;;
3447;SDS011;1738;49.500;17.736;2023-07-22T07:13:58;7.17;;;6.20;;
3447;SDS011;1738;49.500;17.736;2023-07-22T07:16:25;7.33;;;6.63;;
3447;SDS011;1738;49.500;17.736;2023-07-22T07:18:50;7.43;;;5.80;;
3447;SDS011;1738;49.500;17.736;2023-07-22T07:21:15;6.10;;;5.40;;
3447;SDS011;1738;49.500;17.736;2023-07-22T07:23:41;6.57;;;5.60;;
3447;SDS011;1738;49.500;17.736;2023-07-22T07:26:07;6.73;;;6.00;;
3447;SDS011;1738;49.500;17.736;2023-07-22T07:28:33;8.10;;;7.30;;
3447;SDS011;1738;49.500;17.736;2023-07-22T07:30:59;8.27;;;7.43;;
3447;SDS011;1738;49.500;17.736;2023-07-22T07:33:25;8.33;;;7.10;;
3447;SDS011;1738;49.500;17.736;2023-07-22T07:35:51;10.80;;;7.17;;
3447;SDS011;1738;49.500;17.736;2023-07-22T07:38:16;10.13;;;8.67;;
3447;SDS011;1738;49.500;17.736;2023-07-22T07:40:42;8.27;;;7.10;;
3447;SDS011;1738;49.500;17.736;2023-07-22T07:43:08;8.93;;;7.13;;
3447;SDS011;1738;49.500;17.736;2023-07-22T07:45:38;9.23;;;8.20;;
3447;SDS011;1738;49.500;17.736;2023-07-22T07:48:00;10.30;;;8.40;;
3447;SDS011;1738;49.500;17.736;2023-07-22T07:50:26;10.10;;;9.10;;
3447;SDS011;1738;49.500;17.736;2023-07-22T07:52:52;10.27;;;8.63;;
3447;SDS011;1738;49.500;17.736;2023-07-22T07:55:17;9.83;;;8.83;;
3447;SDS011;1738;49.500;17.736;2023-07-22T07:57:43;9.40;;;7.93;;
3447;SDS011;1738;49.500;17.736;2023-07-22T08:00:09;8.60;;;7.67;;
3447;SDS011;1738;49.500;17.736;2023-07-22T08:02:35;8.80;;;7.90;;
3447;SDS011;1738;49.500;17.736;2023-07-22T08:05:01;8.87;;;7.97;;
3447;SDS011;1738;49.500;17.736;2023-07-22T08:07:27;9.63;;;8.63;;
3447;SDS011;1738;49.500;17.736;2023-07-22T08:09:53;10.13;;;8.17;;
3447;SDS011;1738;49.500;17.736;2023-07-22T08:12:19;8.10;;;7.25;;
3447;SDS011;1738;49.500;17.736;2023-07-22T08:14:44;8.93;;;8.10;;
3447;SDS011;1738;49.500;17.736;2023-07-22T08:17:10;7.73;;;6.93;;
3447;SDS011;1738;49.500;17.736;2023-07-22T08:19:36;9.98;;;6.30;;
3447;SDS011;1738;49.500;17.736;2023-07-22T08:22:02;7.10;;;6.40;;
3447;SDS011;1738;49.500;17.736;2023-07-22T08:24:28;9.73;;;5.93;;
3447;SDS011;1738;49.500;17.736;2023-07-22T08:26:54;6.30;;;5.10;;
3447;SDS011;1738;49.500;17.736;2023-07-22T08:29:20;9.50;;;6.60;;
3447;SDS011;1738;49.500;17.736;2023-07-22T08:31:45;9.90;;;5.17;;
3447;SDS011;1738;49.500;17.736;2023-07-22T08:34:11;8.30;;;5.87;;
3447;SDS011;1738;49.500;17.736;2023-07-22T08:36:37;6.97;;;5.60;;
3447;SDS011;1738;49.500;17.736;2023-07-22T08:39:03;7.70;;;5.90;;
3447;SDS011;1738;49.500;17.736;2023-07-22T08:41:29;5.67;;;5.17;;
3447;SDS011;1738;49.500;17.736;2023-07-22T08:43:55;9.90;;;6.37;;
3447;SDS011;1738;49.500;17.736;2023-07-22T08:46:20;8.37;;;5.90;;
3447;SDS011;1738;49.500;17.736;2023-07-22T08:48:46;5.90;;;5.30;;
3447;SDS011;1738;49.500;17.736;2023-07-22T08:51:15;6.60;;;5.73;;
3447;SDS011;1738;49.500;17.736;2023-07-22T08:53:39;6.17;;;5.07;;
3447;SDS011;1738;49.500;17.736;2023-07-22T08:56:05;5.93;;;4.77;;
3447;SDS011;1738;49.500;17.736;2023-07-22T08:58:31;6.57;;;5.00;;
3447;SDS011;1738;49.500;17.736;2023-07-22T09:00:56;5.90;;;4.50;;
3447;SDS011;1738;49.500;17.736;2023-07-22T09:03:22;4.93;;;4.43;;
3447;SDS011;1738;49.500;17.736;2023-07-22T09:05:48;6.63;;;4.83;;
3447;SDS011;1738;49.500;17.736;2023-07-22T09:08:14;7.10;;;5.03;;
3447;SDS011;1738;49.500;17.736;2023-07-22T09:10:40;5.80;;;5.03;;
3447;SDS011;1738;49.500;17.736;2023-07-22T09:13:06;7.00;;;5.50;;
3447;SDS011;1738;49.500;17.736;2023-07-22T09:15:33;8.70;;;5.97;;
3447;SDS011;1738;49.500;17.736;2023-07-22T09:17:57;9.83;;;6.30;;
3447;SDS011;1738;49.500;17.736;2023-07-22T09:20:23;5.93;;;5.30;;
3447;SDS011;1738;49.500;17.736;2023-07-22T09:22:49;6.40;;;4.80;;
3447;SDS011;1738;49.500;17.736;2023-07-22T09:25:17;5.57;;;4.70;;
3447;SDS011;1738;49.500;17.736;2023-07-22T09:27:43;5.68;;;5.03;;
3447;SDS011;1738;49.500;17.736;2023-07-22T09:30:25;6.20;;;4.43;;
3447;SDS011;1738;49.500;17.736;2023-07-22T09:32:50;5.37;;;4.03;;
3447;SDS011;1738;49.500;17.736;2023-07-22T09:35:15;4.90;;;3.97;;
3447;SDS011;1738;49.500;17.736;2023-07-22T09:37:41;5.70;;;3.80;;
3447;SDS011;1738;49.500;17.736;2023-07-22T09:42:38;5.37;;;4.80;;
3447;SDS011;1738;49.500;17.736;2023-07-22T09:45:05;4.43;;;3.77;;
3447;SDS011;1738;49.500;17.736;2023-07-22T09:47:39;5.80;;;3.90;;
3447;SDS011;1738;49.500;17.736;2023-07-22T09:49:56;4.00;;;3.07;;
3447;SDS011;1738;49.500;17.736;2023-07-22T09:52:22;5.53;;;2.80;;
3447;SDS011;1738;49.500;17.736;2023-07-22T09:54:48;4.23;;;3.57;;
3447;SDS011;1738;49.500;17.736;2023-07-22T09:57:14;4.37;;;3.23;;
3447;SDS011;1738;49.500;17.736;2023-07-22T09:59:40;3.57;;;3.00;;
3447;SDS011;1738;49.500;17.736;2023-07-22T10:02:06;5.10;;;3.77;;
3447;SDS011;1738;49.500;17.736;2023-07-22T10:04:33;5.43;;;3.80;;
3447;SDS011;1738;49.500;17.736;2023-07-22T10:06:57;4.40;;;3.00;;
3447;SDS011;1738;49.500;17.736;2023-07-22T10:09:23;4.27;;;3.60;;
3447;SDS011;1738;49.500;17.736;2023-07-22T10:11:49;4.80;;;3.10;;
3447;SDS011;1738;49.500;17.736;2023-07-22T10:14:15;4.70;;;3.47;;
3447;SDS011;1738;49.500;17.736;2023-07-22T10:16:41;4.80;;;3.53;;
3447;SDS011;1738;49.500;17.736;2023-07-22T10:19:06;5.50;;;2.93;;
3447;SDS011;1738;49.500;17.736;2023-07-22T10:21:32;4.60;;;3.37;;
3447;SDS011;1738;49.500;17.736;2023-07-22T10:23:58;5.03;;;2.47;;
3447;SDS011;1738;49.500;17.736;2023-07-22T10:26:24;4.20;;;3.30;;
3447;SDS011;1738;49.500;17.736;2023-07-22T10:28:50;5.33;;;3.60;;
3447;SDS011;1738;49.500;17.736;2023-07-22T10:31:16;5.40;;;3.73;;
3447;SDS011;1738;49.500;17.736;2023-07-22T10:33:42;4.80;;;3.03;;
3447;SDS011;1738;49.500;17.736;2023-07-22T10:36:09;4.83;;;2.83;;
3447;SDS011;1738;49.500;17.736;2023-07-22T10:38:35;5.57;;;2.83;;
3447;SDS011;1738;49.500;17.736;2023-07-22T10:41:00;6.60;;;2.70;;
3447;SDS011;1738;49.500;17.736;2023-07-22T10:43:30;3.90;;;2.53;;
3447;SDS011;1738;49.500;17.736;2023-07-22T10:45:56;4.50;;;3.37;;
3447;SDS011;1738;49.500;17.736;2023-07-22T10:48:22;5.50;;;3.10;;
3447;SDS011;1738;49.500;17.736;2023-07-22T10:50:48;4.53;;;3.47;;
3447;SDS011;1738;49.500;17.736;2023-07-22T10:53:14;4.27;;;2.53;;
3447;SDS011;1738;49.500;17.736;2023-07-22T10:58:10;6.97;;;3.20;;
3447;SDS011;1738;49.500;17.736;2023-07-22T11:00:36;6.53;;;2.40;;
3447;SDS011;1738;49.500;17.736;2023-07-22T11:08:06;8.53;;;2.90;;
3447;SDS011;1738;49.500;17.736;2023-07-22T11:10:31;4.23;;;2.97;;
3447;SDS011;1738;49.500;17.736;2023-07-22T11:12:57;5.70;;;3.13;;
3447;SDS011;1738;49.500;17.736;2023-07-22T11:15:27;5.13;;;2.73;;
3447;SDS011;1738;49.500;17.736;2023-07-22T11:17:49;4.87;;;2.87;;
3447;SDS011;1738;49.500;17.736;2023-07-22T11:20:15;4.43;;;2.70;;
3447;SDS011;1738;49.500;17.736;2023-07-22T11:22:41;3.47;;;2.40;;
3447;SDS011;1738;49.500;17.736;2023-07-22T11:25:07;3.97;;;2.40;;
3447;SDS011;1738;49.500;17.736;2023-07-22T11:27:33;5.20;;;2.80;;
3447;SDS011;1738;49.500;17.736;2023-07-22T11:29:58;3.80;;;2.47;;
3447;SDS011;1738;49.500;17.736;2023-07-22T11:32:24;5.93;;;2.83;;
3447;SDS011;1738;49.500;17.736;2023-07-22T11:34:51;4.57;;;2.77;;
3447;SDS011;1738;49.500;17.736;2023-07-22T11:37:17;4.27;;;2.70;;
3447;SDS011;1738;49.500;17.736;2023-07-22T11:39:43;6.60;;;3.40;;
3447;SDS011;1738;49.500;17.736;2023-07-22T11:42:09;4.47;;;3.23;;
3447;SDS011;1738;49.500;17.736;2023-07-22T11:44:34;3.77;;;2.50;;
3447;SDS011;1738;49.500;17.736;2023-07-22T11:47:01;4.73;;;2.90;;
3447;SDS011;1738;49.500;17.736;2023-07-22T11:49:29;3.23;;;1.90;;
3447;SDS011;1738;49.500;17.736;2023-07-22T11:51:55;3.30;;;2.20;;
3447;SDS011;1738;49.500;17.736;2023-07-22T11:54:21;3.50;;;2.37;;
3447;SDS011;1738;49.500;17.736;2023-07-22T11:56:46;3.70;;;2.73;;
3447;SDS011;1738;49.500;17.736;2023-07-22T11:59:12;6.53;;;3.23;;
3447;SDS011;1738;49.500;17.736;2023-07-22T12:01:38;5.00;;;3.13;;
3447;SDS011;1738;49.500;17.736;2023-07-22T12:04:09;4.00;;;2.80;;
3447;SDS011;1738;49.500;17.736;2023-07-22T12:06:29;6.60;;;2.83;;
3447;SDS011;1738;49.500;17.736;2023-07-22T12:08:55;4.30;;;2.60;;
3447;SDS011;1738;49.500;17.736;2023-07-22T12:11:23;4.97;;;3.13;;
3447;SDS011;1738;49.500;17.736;2023-07-22T12:13:49;5.30;;;2.80;;
3447;SDS011;1738;49.500;17.736;2023-07-22T12:16:14;4.43;;;2.63;;
3447;SDS011;1738;49.500;17.736;2023-07-22T12:18:41;4.80;;;2.83;;
3447;SDS011;1738;49.500;17.736;2023-07-22T12:21:07;3.40;;;2.60;;
3447;SDS011;1738;49.500;17.736;2023-07-22T12:23:32;4.67;;;3.00;;
3447;SDS011;1738;49.500;17.736;2023-07-22T12:25:58;4.00;;;2.70;;
3447;SDS011;1738;49.500;17.736;2023-07-22T12:28:24;5.47;;;3.20;;
3447;SDS011;1738;49.500;17.736;2023-07-22T12:30:50;7.53;;;3.40;;
3447;SDS011;1738;49.500;17.736;2023-07-22T12:33:16;3.80;;;2.57;;
3447;SDS011;1738;49.500;17.736;2023-07-22T12:35:42;4.03;;;2.70;;
3447;SDS011;1738;49.500;17.736;2023-07-22T12:38:07;4.40;;;3.03;;
3447;SDS011;1738;49.500;17.736;2023-07-22T12:40:33;7.40;;;3.13;;
3447;SDS011;1738;49.500;17.736;2023-07-22T12:42:59;6.83;;;3.00;;
3447;SDS011;1738;49.500;17.736;2023-07-22T12:45:25;3.30;;;2.50;;
3447;SDS011;1738;49.500;17.736;2023-07-22T12:47:51;6.73;;;3.13;;
3447;SDS011;1738;49.500;17.736;2023-07-22T12:50:17;5.93;;;3.17;;
3447;SDS011;1738;49.500;17.736;2023-07-22T12:52:42;5.03;;;2.77;;
3447;SDS011;1738;49.500;17.736;2023-07-22T12:55:08;3.87;;;2.87;;
3447;SDS011;1738;49.500;17.736;2023-07-22T12:57:34;4.70;;;2.47;;
3447;SDS011;1738;49.500;17.736;2023-07-22T13:00:00;7.03;;;3.23;;
3447;SDS011;1738;49.500;17.736;2023-07-22T13:02:26;6.17;;;3.00;;
3447;SDS011;1738;49.500;17.736;2023-07-22T13:04:52;4.80;;;3.23;;
3447;SDS011;1738;49.500;17.736;2023-07-22T13:07:17;5.63;;;2.90;;
3447;SDS011;1738;49.500;17.736;2023-07-22T13:09:43;5.10;;;3.00;;
3447;SDS011;1738;49.500;17.736;2023-07-22T13:12:09;5.77;;;3.10;;
3447;SDS011;1738;49.500;17.736;2023-07-22T13:14:35;6.67;;;2.83;;
3447;SDS011;1738;49.500;17.736;2023-07-22T13:17:01;4.50;;;3.23;;
3447;SDS011;1738;49.500;17.736;2023-07-22T13:19:27;4.80;;;2.87;;
3447;SDS011;1738;49.500;17.736;2023-07-22T13:21:52;3.90;;;2.63;;
3447;SDS011;1738;49.500;17.736;2023-07-22T13:24:18;5.00;;;3.53;;
3447;SDS011;1738;49.500;17.736;2023-07-22T13:26:44;4.53;;;3.33;;
3447;SDS011;1738;49.500;17.736;2023-07-22T13:29:10;3.50;;;2.27;;
3447;SDS011;1738;49.500;17.736;2023-07-22T13:31:36;4.50;;;2.90;;
3447;SDS011;1738;49.500;17.736;2023-07-22T13:34:02;5.63;;;2.67;;
3447;SDS011;1738;49.500;17.736;2023-07-22T13:36:27;6.37;;;2.80;;
3447;SDS011;1738;49.500;17.736;2023-07-22T13:38:53;4.95;;;2.75;;
3447;SDS011;1738;49.500;17.736;2023-07-22T13:41:19;12.30;;;3.23;;
3447;SDS011;1738;49.500;17.736;2023-07-22T13:43:45;4.50;;;2.80;;
3447;SDS011;1738;49.500;17.736;2023-07-22T13:46:11;5.30;;;3.00;;
3447;SDS011;1738;49.500;17.736;2023-07-22T13:48:37;5.50;;;3.10;;
3447;SDS011;1738;49.500;17.736;2023-07-22T13:51:02;6.40;;;2.90;;
3447;SDS011;1738;49.500;17.736;2023-07-22T13:53:28;5.03;;;2.80;;
3447;SDS011;1738;49.500;17.736;2023-07-22T13:55:54;4.45;;;2.67;;
3447;SDS011;1738;49.500;17.736;2023-07-22T13:58:20;4.33;;;2.97;;
3447;SDS011;1738;49.500;17.736;2023-07-22T14:00:46;3.50;;;2.67;;
3447;SDS011;1738;49.500;17.736;2023-07-22T14:03:12;4.10;;;2.93;;
3447;SDS011;1738;49.500;17.736;2023-07-22T14:05:38;5.90;;;2.90;;
3447;SDS011;1738;49.500;17.736;2023-07-22T14:08:04;5.50;;;2.37;;
3447;SDS011;1738;49.500;17.736;2023-07-22T14:10:29;6.20;;;2.87;;
3447;SDS011;1738;49.500;17.736;2023-07-22T14:12:55;5.77;;;3.03;;
3447;SDS011;1738;49.500;17.736;2023-07-22T14:15:21;4.80;;;2.97;;
3447;SDS011;1738;49.500;17.736;2023-07-22T14:17:47;4.00;;;2.70;;
3447;SDS011;1738;49.500;17.736;2023-07-22T14:20:13;5.80;;;2.73;;
3447;SDS011;1738;49.500;17.736;2023-07-22T14:22:39;4.30;;;3.13;;
3447;SDS011;1738;49.500;17.736;2023-07-22T14:25:05;6.30;;;3.30;;
3447;SDS011;1738;49.500;17.736;2023-07-22T14:27:31;3.97;;;2.90;;
3447;SDS011;1738;49.500;17.736;2023-07-22T14:29:56;4.23;;;3.10;;
3447;SDS011;1738;49.500;17.736;2023-07-22T14:32:22;6.83;;;3.33;;
3447;SDS011;1738;49.500;17.736;2023-07-22T14:34:48;4.77;;;2.70;;
3447;SDS011;1738;49.500;17.736;2023-07-22T14:37:14;4.90;;;2.90;;
3447;SDS011;1738;49.500;17.736;2023-07-22T14:39:40;5.33;;;3.00;;
3447;SDS011;1738;49.500;17.736;2023-07-22T14:42:06;5.47;;;3.10;;
3447;SDS011;1738;49.500;17.736;2023-07-22T14:44:32;6.03;;;3.20;;
3447;SDS011;1738;49.500;17.736;2023-07-22T14:46:58;4.53;;;3.30;;
3447;SDS011;1738;49.500;17.736;2023-07-22T14:49:24;4.10;;;2.40;;
3447;SDS011;1738;49.500;17.736;2023-07-22T14:51:50;4.33;;;3.10;;
3447;SDS011;1738;49.500;17.736;2023-07-22T14:54:16;4.43;;;2.87;;